Time;durP1;ratioP1;P1;durP2;ratioP2;P2;SDS_P1;SDS_P2;PMS_P1;PMS_P2;Temp;Humidity;BMP_temperature;BMP_pressure;BME280_temperature;BME280_humidity;BME280_pressure;Samples;Min_cycle;Max_cycle;Signal;HPM_P1;HPM_P2
2021/07/17 00:02:23;;;;;;;;;;;18.90;99.90;;;18.57;95.80;100693.88;4994355;28;19926;-65
2021/07/17 00:04:51;;;;;;;;;;;18.80;99.90;;;18.43;95.17;100688.72;4993601;28;19930;-64
2021/07/17 00:07:20;;;;;;;;;;;18.70;99.90;;;18.33;95.22;100694.69;4993291;28;19926;-64
2021/07/17 00:09:47;;;;;;;;;;;18.60;99.90;;;18.32;96.07;100696.63;4993968;28;19926;-64
2021/07/17 00:12:16;;;;;;;;;;;18.60;99.90;;;18.46;97.45;100696.25;4994380;28;19929;-65
2021/07/17 00:14:43;;;;;;;;;;;18.60;99.90;;;18.66;97.92;100698.06;4993545;28;19926;-64
2021/07/17 00:17:11;;;;;;;;;;;18.80;99.90;;;18.87;98.74;100701.44;4993321;28;19968;-63
2021/07/17 00:19:41;;;;;;;;;;;19.00;99.90;;;19.14;98.71;100699.81;4993485;28;19929;-63
2021/07/17 00:22:09;;;;;;;;;;;19.20;99.90;;;19.35;97.94;100694.91;4994190;28;19968;-64
2021/07/17 00:24:37;;;;;;;;;;;19.40;99.90;;;19.46;98.24;100695.22;4993642;28;19926;-64
2021/07/17 00:27:04;;;;;;;;;;;19.50;99.90;;;19.47;98.89;100694.88;4993003;28;19929;-65
2021/07/17 00:29:32;;;;;;;;;;;19.60;99.90;;;19.45;99.04;100682.66;4993103;28;19925;-65
2021/07/17 00:32:00;;;;;;;;;;;19.60;99.90;;;19.48;100.00;100681.97;4993905;28;20325;-64
2021/07/17 00:34:28;;;;;;;;;;;19.70;99.90;;;19.49;100.00;100675.31;4993755;28;20344;-64
2021/07/17 00:36:57;;;;;;;;;;;19.70;99.90;;;19.58;100.00;100673.19;4992730;28;19964;-64
2021/07/17 00:39:24;;;;;;;;;;;19.70;99.90;;;19.67;100.00;100667.56;4993140;28;19929;-64
2021/07/17 00:41:53;;;;;;;;;;;19.80;99.90;;;19.68;100.00;100666.38;4993795;28;19996;-64
2021/07/17 00:44:21;;;;;;;;;;;19.80;99.90;;;19.66;100.00;100672.25;4993433;28;19930;-64
2021/07/17 00:46:50;;;;;;;;;;;19.80;99.90;;;19.69;100.00;100660.56;4992587;28;19929;-64
2021/07/17 00:49:20;;;;;;;;;;;19.90;99.90;;;19.65;100.00;100667.91;4992826;28;19931;-64
2021/07/17 00:51:48;;;;;;;;;;;19.90;99.90;;;19.55;100.00;100666.47;4993624;28;20359;-64
2021/07/17 00:54:19;;;;;;;;;;;19.80;99.90;;;19.63;100.00;100662.78;4993592;28;19925;-64
2021/07/17 00:56:47;;;;;;;;;;;19.80;99.90;;;19.74;100.00;100657.53;4992627;28;19926;-64
2021/07/17 00:59:17;;;;;;;;;;;19.90;99.90;;;19.71;100.00;100662.94;4992547;28;20352;-63
2021/07/17 01:01:45;;;;;;;;;;;19.90;99.90;;;19.69;100.00;100662.50;4993445;28;20397;-64
2021/07/17 01:04:13;;;;;;;;;;;19.90;99.90;;;19.74;100.00;100652.06;4993556;28;20376;-65
2021/07/17 01:06:42;;;;;;;;;;;19.90;99.90;;;19.71;100.00;100652.75;4991741;28;19961;-64
2021/07/17 01:09:10;;;;;;;;;;;19.90;99.90;;;19.67;100.00;100654.63;4992253;28;19926;-64
2021/07/17 01:11:39;;;;;;;;;;;19.80;99.90;;;19.73;100.00;100646.94;4993323;28;19980;-64
2021/07/17 01:14:07;;;;;;;;;;;19.90;99.90;;;19.62;100.00;100644.72;4993330;28;19926;-64
2021/07/17 01:16:34;;;;;;;;;;;19.80;99.90;;;19.52;100.00;100647.97;4992155;28;19984;-64
2021/07/17 01:19:03;;;;;;;;;;;19.80;99.90;;;19.58;100.00;100643.81;4992486;28;19925;-64
2021/07/17 01:21:32;;;;;;;;;;;19.80;99.90;;;19.54;100.00;100637.47;4993237;28;20387;-64
2021/07/17 01:24:01;;;;;;;;;;;19.80;99.90;;;19.57;100.00;100647.75;4993285;28;20008;-64
2021/07/17 01:26:30;;;;;;;;;;;;;;;19.60;100.00;100641.53;4992084;28;19980;-64
2021/07/17 01:28:57;;;;;;;;;;;19.80;99.90;;;19.63;100.00;100640.84;4992505;28;19933;-64
2021/07/17 01:31:27;;;;;;;;;;;;;;;19.55;100.00;100639.03;4992913;28;19980;-64
2021/07/17 01:33:55;;;;;;;;;;;19.80;99.90;;;19.55;100.00;100636.31;4993213;28;19925;-63
2021/07/17 01:36:23;;;;;;;;;;;;;;;19.49;100.00;100631.44;4992044;28;19925;-64
2021/07/17 01:38:52;;;;;;;;;;;19.70;99.90;;;19.46;100.00;100632.13;4992276;28;19954;-64
2021/07/17 01:41:21;;;;;;;;;;;19.70;99.90;;;19.55;100.00;100632.75;4992965;28;19930;-65
2021/07/17 01:43:49;;;;;;;;;;;19.70;99.90;;;19.54;100.00;100629.25;4993020;28;19930;-64
2021/07/17 06:53:10;;;;;;;;;;;19.80;99.90;;;19.69;100.00;100729.16;4994437;28;20056;-65
2021/07/17 06:55:38;;;;;;;;;;;19.80;99.90;;;19.79;100.00;100731.34;4994725;28;20179;-65
2021/07/17 06:58:05;;;;;;;;;;;19.80;99.90;;;19.81;100.00;100739.22;4995162;28;19926;-64
2021/07/17 07:00:34;;;;;;;;;;;19.90;99.90;;;19.93;100.00;100741.91;4995387;28;19926;-64
2021/07/17 07:03:02;;;;;;;;;;;20.00;99.90;;;20.03;100.00;100744.88;4994845;28;19980;-65
2021/07/17 07:05:29;;;;;;;;;;;20.10;99.90;;;20.06;100.00;100746.91;4994125;28;19930;-65
2021/07/17 07:07:57;;;;;;;;;;;20.10;99.90;;;19.99;100.00;100744.03;4994771;28;19929;-64
2021/07/17 07:10:26;;;;;;;;;;;20.00;99.90;;;20.02;100.00;100743.31;4995075;28;20361;-65
2021/07/17 07:12:54;;;;;;;;;;;20.10;99.90;;;20.08;100.00;100749.31;4995530;28;20058;-64
2021/07/17 07:15:22;;;;;;;;;;;20.10;99.90;;;20.08;100.00;100743.84;4994456;28;19980;-64
2021/07/17 07:17:49;;;;;;;;;;;20.10;99.90;;;20.14;100.00;100748.72;4995069;28;19930;-64
2021/07/17 07:20:17;;;;;;;;;;;20.20;99.90;;;20.25;100.00;100754.44;4994931;28;19996;-64
2021/07/17 07:22:45;;;;;;;;;;;20.30;99.90;;;20.35;100.00;100758.63;4995142;28;20340;-64
2021/07/17 07:25:13;;;;;;;;;;;20.40;99.90;;;20.34;100.00;100757.81;4994385;28;19929;-64
2021/07/17 07:27:42;;;;;;;;;;;20.40;99.90;;;20.37;100.00;100761.81;4994579;28;19984;-64
2021/07/17 07:30:10;;;;;;;;;;;20.40;99.90;;;20.38;100.00;100763.41;4994745;28;19992;-64
2021/07/17 07:32:37;;;;;;;;;;;20.50;99.90;;;20.35;100.00;100769.63;4994946;28;19926;-64
2021/07/17 07:35:05;;;;;;;;;;;20.40;99.90;;;20.45;100.00;100775.38;4994276;28;20347;-65
2021/07/17 07:37:33;;;;;;;;;;;20.60;99.90;;;20.43;100.00;100766.66;4994349;28;19925;-65
2021/07/17 07:40:01;;;;;;;;;;;20.50;99.90;;;20.41;100.00;100774.47;4994576;28;19934;-65
2021/07/17 07:42:29;;;;;;;;;;;20.50;99.90;;;20.44;100.00;100770.22;4994818;28;19925;-64
2021/07/17 07:44:58;;;;;;;;;;;20.60;99.90;;;20.50;100.00;100779.78;4993936;28;19933;-64
2021/07/17 07:47:26;;;;;;;;;;;20.60;99.90;;;20.51;100.00;100784.13;4993656;28;19925;-65
2021/07/17 07:49:54;;;;;;;;;;;20.60;99.90;;;20.51;100.00;100784.13;4994439;28;20340;-65
2021/07/17 07:52:21;;;;;;;;;;;20.60;99.90;;;20.58;100.00;100793.31;4994540;28;19980;-65
2021/07/17 07:54:49;;;;;;;;;;;20.70;99.90;;;20.59;100.00;100797.66;4993862;28;19925;-64
2021/07/17 07:57:17;;;;;;;;;;;20.70;99.90;;;20.66;100.00;100797.84;4994027;28;19926;-65
2021/07/17 07:59:45;;;;;;;;;;;20.80;99.90;;;20.64;100.00;100799.31;4994109;28;20361;-64
2021/07/17 08:02:14;;;;;;;;;;;20.80;99.90;;;20.66;100.00;100797.84;4994409;28;19930;-65
2021/07/17 08:04:42;;;;;;;;;;;20.80;99.90;;;20.78;100.00;100796.13;4993785;28;19929;-64
2021/07/17 08:07:10;;;;;;;;;;;20.90;99.90;;;20.69;100.00;100799.06;4993738;28;19980;-64
2021/07/17 08:09:37;;;;;;;;;;;20.80;99.90;;;20.75;100.00;100802.31;4993780;28;20288;-64
2021/07/17 08:12:05;;;;;;;;;;;20.90;99.90;;;20.77;100.00;100798.06;4994421;28;19933;-65
2021/07/17 08:14:33;;;;;;;;;;;21.00;99.90;;;20.77;100.00;100802.75;4993483;28;19977;-64
2021/07/17 08:17:04;;;;;;;;;;;20.90;99.90;;;20.94;100.00;100805.13;4993471;28;20282;-65
2021/07/17 08:19:33;;;;;;;;;;;21.10;99.90;;;20.97;100.00;100807.16;4993662;28;19980;-64
2021/07/17 08:22:01;;;;;;;;;;;21.20;99.90;;;21.00;100.00;100800.94;4994164;28;19929;-63
2021/07/17 08:24:28;;;;;;;;;;;21.20;99.90;;;20.94;100.00;100799.63;4993593;28;19933;-65
2021/07/17 08:26:56;;;;;;;;;;;21.10;99.90;;;20.92;100.00;100802.72;4993168;28;19930;-64
2021/07/17 08:29:24;;;;;;;;;;;21.10;99.90;;;20.91;99.90;100800.34;4993349;28;19926;-63
2021/07/17 08:31:52;;;;;;;;;;;21.10;99.90;;;20.97;100.00;100809.91;4994024;28;19926;-64
2021/07/17 08:34:19;;;;;;;;;;;21.10;99.90;;;21.02;99.72;100809.59;4993908;28;19926;-64
2021/07/17 08:36:48;;;;;;;;;;;21.20;99.90;;;20.98;98.92;100809.53;4992909;28;19926;-64
2021/07/17 08:39:16;;;;;;;;;;;21.20;99.90;;;21.00;99.65;100814.69;4993045;28;19926;-64
2021/07/17 08:41:45;;;;;;;;;;;21.20;99.90;;;20.98;98.66;100819.72;4993824;28;19988;-65
2021/07/17 08:44:13;;;;;;;;;;;21.20;99.90;;;20.97;97.13;100809.91;4993753;28;19933;-64
2021/07/17 08:46:42;;;;;;;;;;;21.20;99.90;;;20.86;97.49;100815.16;4992504;28;19929;-65
2021/07/17 08:49:12;;;;;;;;;;;21.10;99.90;;;20.94;98.98;100818.88;4993080;28;19926;-64
2021/07/17 08:51:40;;;;;;;;;;;21.10;99.90;;;20.99;98.19;100815.81;4993672;28;19926;-65
2021/07/17 08:54:09;;;;;;;;;;;21.20;99.90;;;21.12;100.00;100822.81;4993515;28;19930;-66
2021/07/17 08:56:37;;;;;;;;;;;21.30;99.90;;;21.10;97.59;100820.44;4992390;28;19926;-65
2021/07/17 08:59:05;;;;;;;;;;;21.30;99.90;;;21.29;99.81;100819.66;4993605;28;19930;-65
2021/07/17 09:01:32;;;;;;;;;;;21.40;99.90;;;21.46;97.25;100818.44;4993304;28;19926;-65
2021/07/17 09:04:01;;;;;;;;;;;21.60;99.90;;;21.78;96.71;100809.63;4993665;28;19957;-64
2021/07/17 09:06:29;;;;;;;;;;;21.90;99.90;;;21.88;93.63;100813.75;4992383;28;20529;-64
2021/07/17 09:08:56;;;;;;;;;;;22.00;99.90;;;22.09;93.23;100805.88;4993117;28;20020;-65
2021/07/17 09:11:37;;;;;;;;;;;22.20;99.90;;;22.09;89.09;100794.06;4993016;28;20420;-65
2021/07/17 09:14:05;;;;;;;;;;;22.30;99.90;;;22.03;87.88;100799.09;4993432;28;20344;-65
2021/07/17 09:16:36;;;;;;;;;;;22.20;99.90;;;22.14;90.92;100796.50;4992158;28;20468;-63
2021/07/17 09:19:06;;;;;;;;;;;22.30;99.90;;;22.50;89.58;100801.41;4993406;28;19937;-64
2021/07/17 09:21:37;;;;;;;;;;;22.60;99.90;;;22.83;86.78;100801.53;4992961;28;20022;-64
2021/07/17 09:24:06;;;;;;;;;;;23.00;99.90;;;23.10;82.16;100796.00;4993418;28;20040;-64
2021/07/17 09:26:37;;;;;;;;;;;23.20;99.90;;;23.38;83.08;100790.81;4992651;28;20494;-66
2021/07/17 09:29:07;;;;;;;;;;;23.50;99.90;;;23.46;79.51;100791.72;4997119;28;20389;-65
2021/07/17 09:31:36;;;;;;;;;;;23.70;99.90;;;23.65;80.49;100792.31;4996468;28;19930;-64
2021/07/17 09:34:06;;;;;;;;;;;23.90;99.90;;;23.86;79.25;100789.78;4997180;28;19949;-65
2021/07/17 09:36:37;;;;;;;;;;;24.10;99.90;;;24.14;76.59;100788.47;4996127;28;19929;-64
2021/07/17 09:39:05;;;;;;;;;;;24.40;99.90;;;24.42;76.22;100785.94;4997115;28;19926;-64
2021/07/17 09:41:33;;;;;;;;;;;;;;;24.72;74.03;100785.75;4996350;28;19953;-64
2021/07/17 09:44:04;;;;;;;;;;;24.90;99.90;;;24.82;71.42;100790.59;4996852;28;20023;-66
2021/07/17 09:46:33;;;;;;;;;;;25.10;99.90;;;24.97;71.05;100789.47;4996069;28;19925;-64
2021/07/17 09:49:01;;;;;;;;;;;;;;;24.97;70.62;100793.03;4996796;28;19933;-65
2021/07/17 09:51:30;;;;;;;;;;;25.30;99.90;;;25.34;72.18;100794.78;4996411;28;19926;-64
2021/07/17 09:54:00;;;;;;;;;;;25.60;99.90;;;25.50;71.43;100798.03;4996849;28;19929;-65
2021/07/17 09:56:29;;;;;;;;;;;25.90;99.90;;;25.65;69.77;100794.13;4995486;28;19926;-66
2021/07/17 09:59:00;;;;;;;;;;;26.00;99.90;;;25.72;68.59;100805.19;4996703;28;19964;-65
2021/07/17 10:01:32;;;;;;;;;;;26.00;99.90;;;25.71;68.73;100808.38;4996308;28;19926;-64
2021/07/17 10:04:02;;;;;;;;;;;25.80;99.90;;;25.46;69.05;100806.28;4996713;28;19937;-64
2021/07/17 10:06:46;;;;;;;;;;;25.80;99.90;;;25.70;70.83;100804.81;4995581;28;19926;-66
2021/07/17 10:09:27;;;;;;;;;;;;;;;26.00;68.06;100805.25;4995830;28;19941;-64
2021/07/17 10:11:58;;;;;;;;;;;26.40;99.90;;;26.14;67.32;100812.78;4996097;28;19926;-65
2021/07/17 10:14:28;;;;;;;;;;;26.40;99.90;;;26.13;66.66;100807.63;4996333;28;19933;-66
2021/07/17 10:16:59;;;;;;;;;;;26.40;99.90;;;26.30;66.55;100806.84;4995618;28;19925;-65
2021/07/17 10:19:28;;;;;;;;;;;;;;;26.38;65.22;100808.47;4996079;28;19929;-65
2021/07/17 10:21:56;;;;;;;;;;;26.70;99.90;;;26.27;65.38;100805.69;4995978;28;19957;-65
2021/07/17 10:24:24;;;;;;;;;;;26.60;99.90;;;26.18;65.72;100816.38;4996176;28;20048;-65
2021/07/17 10:26:53;;;;;;;;;;;26.60;99.90;;;26.16;64.86;100812.41;4995474;28;19933;-64
2021/07/17 10:29:22;;;;;;;;;;;26.40;99.90;;;26.04;65.24;100811.59;4996143;28;19929;-64
2021/07/17 10:31:51;;;;;;;;;;;26.30;99.90;;;25.95;64.93;100819.50;4995338;28;19937;-65
2021/07/17 10:34:20;;;;;;;;;;;26.30;99.90;;;25.97;65.22;100821.84;4995988;28;20400;-66
2021/07/17 10:36:53;;;;;;;;;;;26.40;99.90;;;26.02;65.19;100816.72;4995192;28;19933;-65
2021/07/17 10:39:27;;;;;;;;;;;26.40;99.90;;;26.03;65.13;100821.09;4995827;28;20025;-65
2021/07/17 10:41:55;;;;;;;;;;;26.40;99.90;;;26.05;64.59;100827.00;4995318;28;19926;-64
2021/07/17 10:44:44;;;;;;;;;;;26.30;99.90;;;25.79;65.44;100832.91;4995602;28;19930;-65
2021/07/17 10:47:13;;;;;;;;;;;26.10;99.90;;;25.81;66.10;100826.97;4995623;28;19933;-65
2021/07/17 10:49:44;;;;;;;;;;;26.10;99.90;;;25.92;65.22;100828.59;4995677;28;19934;-64
2021/07/17 10:52:12;;;;;;;;;;;26.30;99.90;;;26.14;63.80;100829.41;4995286;28;20614;-65
2021/07/17 10:54:40;;;;;;;;;;;26.40;99.90;;;26.06;63.21;100836.13;4995460;28;20404;-65
2021/07/17 10:57:09;;;;;;;;;;;26.40;99.90;;;26.13;64.83;100835.34;4995124;28;19984;-66
2021/07/17 10:59:54;;;;;;;;;;;26.50;99.90;;;26.11;63.62;100834.97;4995541;28;19933;-65
2021/07/17 11:02:24;;;;;;;;;;;26.50;99.90;;;26.11;63.34;100838.53;4995276;28;20522;-64
2021/07/17 11:04:58;;;;;;;;;;;26.50;99.90;;;26.19;63.08;100828.25;4994851;28;20440;-65
2021/07/17 11:07:39;;;;;;;;;;;26.60;99.90;;;26.04;63.75;100838.50;4994994;28;19981;-64
2021/07/17 11:10:09;;;;;;;;;;;26.40;99.90;;;25.98;63.68;100835.34;4990787;28;19940;-65
2021/07/17 11:12:56;;;;;;;;;;;26.30;99.90;;;26.11;64.03;100827.44;4994989;28;20341;-66
2021/07/17 11:15:35;;;;;;;;;;;26.40;99.90;;;26.30;61.67;100831.81;4994684;28;19934;-64
2021/07/17 11:18:21;;;;;;;;;;;26.60;99.90;;;26.13;62.19;100830.59;4994990;28;20361;-66
2021/07/17 11:20:53;;;;;;;;;;;26.50;99.90;;;26.12;63.30;100826.22;4995073;28;20439;-65
2021/07/17 11:23:21;;;;;;;;;;;26.40;99.90;;;26.18;62.28;100833.00;4994963;28;19929;-65
2021/07/17 11:25:55;;;;;;;;;;;26.40;99.90;;;25.97;63.39;100833.75;4994327;28;19926;-64
2021/07/17 11:29:02;;;;;;;;;;;26.30;99.90;;;26.11;63.32;100832.97;4994850;28;19929;-65
2021/07/17 11:31:55;;;;;;;;;;;26.30;99.90;;;26.27;62.38;100835.38;4988542;28;19926;-64
2021/07/17 11:34:35;;;;;;;;;;;26.50;99.90;;;26.18;61.86;100838.53;4994670;28;19926;-65
2021/07/17 11:37:10;;;;;;;;;;;26.50;99.90;;;26.09;62.47;100838.91;4994484;28;20407;-64
2021/07/17 11:39:43;;;;;;;;;;;26.40;99.90;;;26.32;61.29;100835.00;4994753;28;19965;-65
2021/07/17 11:42:12;;;;;;;;;;;26.60;99.90;;;26.35;61.57;100837.78;4994141;28;19925;-66
2021/07/17 11:44:42;;;;;;;;;;;26.70;99.90;;;26.63;61.09;100838.94;4994159;28;19933;-66
2021/07/17 11:47:12;;;;;;;;;;;26.90;99.90;;;26.47;60.52;100836.59;4994552;28;19930;-66
2021/07/17 11:49:41;;;;;;;;;;;26.80;99.90;;;26.27;60.96;100833.41;4994103;28;19933;-65
2021/07/17 11:52:12;;;;;;;;;;;26.70;99.90;;;26.40;61.79;100839.34;4994061;28;19929;-65
2021/07/17 11:54:42;;;;;;;;;;;26.70;99.90;;;26.39;60.88;100840.53;4994438;28;19930;-64
2021/07/17 11:57:12;;;;;;;;;;;26.70;99.90;;;26.41;60.77;100832.63;4994304;28;19981;-65
2021/07/17 11:59:41;;;;;;;;;;;26.70;99.90;;;26.22;61.03;100833.81;4994491;28;19930;-64
2021/07/17 12:02:11;;;;;;;;;;;26.60;99.90;;;26.26;61.03;100844.91;4993975;28;19980;-64
2021/07/17 12:04:42;;;;;;;;;;;26.60;99.90;;;26.24;61.14;100836.16;4994027;28;20444;-65
2021/07/17 12:07:12;;;;;;;;;;;26.50;99.90;;;26.17;61.11;100841.72;4994165;28;19926;-64
2021/07/17 12:09:43;;;;;;;;;;;26.50;99.90;;;26.28;61.17;100832.22;4994251;28;20451;-64
2021/07/17 12:12:27;;;;;;;;;;;26.60;99.90;;;26.22;61.10;100838.53;4993636;28;19981;-63
2021/07/17 12:15:18;;;;;;;;;;;26.60;99.90;;;26.37;61.07;100829.03;4993704;28;19958;-64
2021/07/17 12:17:57;;;;;;;;;;;26.70;99.90;;;26.49;60.32;100825.88;4994300;28;19925;-64
2021/07/17 12:20:27;;;;;;;;;;;26.80;99.90;;;26.45;59.36;100830.63;4993859;28;19938;-65
2021/07/17 12:23:03;;;;;;;;;;;26.80;99.90;;;26.43;59.99;100825.47;4993747;28;19926;-64
2021/07/17 12:25:32;;;;;;;;;;;26.80;99.90;;;26.53;59.93;100815.56;4989784;28;19926;-65
2021/07/17 12:28:09;;;;;;;;;;;26.80;99.90;;;26.54;59.56;100825.47;4993895;28;19926;-64
2021/07/17 12:30:38;;;;;;;;;;;26.90;99.90;;;26.44;60.21;100820.75;4993576;28;19929;-64
2021/07/17 12:33:14;;;;;;;;;;;26.70;99.90;;;26.51;59.79;100810.41;4993316;28;19926;-64
2021/07/17 12:35:42;;;;;;;;;;;26.80;99.90;;;26.78;59.39;100815.53;4993158;28;20336;-66
2021/07/17 12:38:24;;;;;;;;;;;27.00;99.90;;;26.94;58.85;100811.16;4993781;28;19929;-64
2021/07/17 12:40:58;;;;;;;;;;;27.40;99.90;;;27.07;57.62;100811.53;4993484;28;19929;-64
2021/07/17 12:43:29;;;;;;;;;;;27.40;99.90;;;27.28;57.88;100814.22;4993352;28;19937;-64
2021/07/17 12:46:06;;;;;;;;;;;27.60;99.90;;;27.29;56.74;100809.47;4993018;28;20385;-64
2021/07/17 12:48:43;;;;;;;;;;;27.70;99.90;;;27.41;56.96;100811.78;4993656;28;20377;-66
2021/07/17 12:51:15;;;;;;;;;;;27.80;99.90;;;27.15;57.03;100813.88;4993199;28;19926;-64
2021/07/17 12:53:45;;;;;;;;;;;27.60;99.90;;;26.94;57.65;100811.16;4993328;28;19934;-64
2021/07/17 12:56:14;;;;;;;;;;;27.40;99.90;;;26.92;58.45;100815.53;4992627;28;19929;-65
2021/07/17 12:58:42;;;;;;;;;;;27.30;99.90;;;26.79;57.99;100809.59;4993564;28;19930;-65
2021/07/17 13:01:11;;;;;;;;;;;27.30;99.90;;;26.65;58.63;100806.06;4992472;28;19996;-64
2021/07/17 13:03:40;;;;;;;;;;;27.10;99.90;;;26.54;58.37;100803.28;4993407;28;19930;-64
2021/07/17 13:06:14;;;;;;;;;;;26.90;99.90;;;26.48;58.92;100802.09;4992655;28;19957;-64
2021/07/17 13:08:42;;;;;;;;;;;26.80;99.90;;;26.46;60.64;100799.72;4993556;28;20052;-63
2021/07/17 13:11:18;;;;;;;;;;;26.80;99.90;;;26.46;59.00;100802.50;4992862;28;20365;-64
2021/07/17 13:13:51;;;;;;;;;;;26.80;99.90;;;26.44;58.95;100798.56;4993119;28;20388;-64
2021/07/17 13:16:29;;;;;;;;;;;26.80;99.90;;;26.40;60.02;100795.78;4992568;28;19922;-64
2021/07/17 13:18:58;;;;;;;;;;;;;;;26.43;59.50;100800.53;4993269;28;20369;-64
2021/07/17 13:21:37;;;;;;;;;;;26.70;99.90;;;26.63;58.82;100800.88;4992651;28;19933;-64
2021/07/17 13:24:06;;;;;;;;;;;26.90;99.90;;;26.47;59.44;100801.31;4993070;28;20337;-65
2021/07/17 13:26:37;;;;;;;;;;;26.90;99.90;;;26.31;59.39;100809.25;4992451;28;19972;-65
2021/07/17 13:29:17;;;;;;;;;;;26.70;99.90;;;26.21;59.64;100804.50;4993098;28;19972;-64
2021/07/17 13:31:56;;;;;;;;;;;26.60;99.90;;;26.20;61.00;100814.00;4992498;28;19929;-65
2021/07/17 13:34:25;;;;;;;;;;;26.60;99.90;;;26.35;59.20;100810.06;4993082;28;19926;-65
2021/07/17 13:37:02;;;;;;;;;;;26.70;99.90;;;26.43;59.16;100811.63;4992359;28;19925;-65
2021/07/17 13:39:32;;;;;;;;;;;26.80;99.90;;;26.48;59.41;100824.28;4993000;28;20336;-64
2021/07/17 13:42:11;;;;;;;;;;;26.90;99.90;;;26.71;58.06;100816.34;4992583;28;19926;-65
2021/07/17 13:44:40;;;;;;;;;;;27.10;99.90;;;26.51;57.76;100815.16;4992492;28;19980;-64
2021/07/17 13:47:12;;;;;;;;;;;27.00;99.90;;;26.36;58.63;100819.13;4992965;28;20301;-64
2021/07/17 13:49:40;;;;;;;;;;;26.90;99.90;;;26.31;58.46;100814.78;4992917;28;19932;-64
2021/07/17 13:52:32;;;;;;;;;;;26.80;99.90;;;26.17;58.27;100830.63;4992234;28;19929;-64
2021/07/17 13:55:00;;;;;;;;;;;26.30;99.90;;;25.70;59.29;100826.97;4992161;28;19929;-64
2021/07/17 13:57:49;;;;;;;;;;;26.00;99.90;;;25.36;61.94;100836.69;4992812;28;19926;-64
2021/07/17 14:00:18;;;;;;;;;;;25.90;99.90;;;25.38;61.50;100828.81;4992852;28;19930;-65
2021/07/17 14:02:47;;;;;;;;;;;25.80;99.90;;;25.26;62.29;100834.69;4992274;28;20385;-64
2021/07/17 14:05:16;;;;;;;;;;;25.80;99.90;;;25.22;62.26;100842.19;4992164;28;19926;-65
2021/07/17 14:07:43;;;;;;;;;;;25.70;99.90;;;25.14;61.44;100832.25;4992586;28;19925;-64
2021/07/17 14:10:12;;;;;;;;;;;25.70;99.90;;;25.26;62.18;100843.75;4992749;28;19953;-65
2021/07/17 14:12:41;;;;;;;;;;;25.70;99.90;;;25.38;60.96;100845.41;4992647;28;19984;-64
2021/07/17 14:15:10;;;;;;;;;;;25.80;99.90;;;25.25;60.39;100850.50;4995730;28;19933;-65
2021/07/17 14:17:38;;;;;;;;;;;;;;;25.14;61.58;100863.47;4996224;28;20345;-64
2021/07/17 14:20:07;;;;;;;;;;;25.60;99.90;;;25.35;60.32;100854.50;4996307;28;19925;-65
2021/07/17 14:22:35;;;;;;;;;;;25.80;99.90;;;25.13;60.21;100859.13;4996005;28;19933;-65
2021/07/17 14:25:03;;;;;;;;;;;25.70;99.90;;;25.02;60.60;100861.03;4995526;28;19930;-65
2021/07/17 14:27:30;;;;;;;;;;;25.60;99.90;;;25.41;59.71;100861.25;4996092;28;19933;-63
2021/07/17 14:29:59;;;;;;;;;;;26.00;99.90;;;25.61;58.15;100862.53;4996122;28;19926;-64
2021/07/17 14:32:27;;;;;;;;;;;26.10;99.90;;;25.52;58.71;100868.44;4995362;28;19926;-64
2021/07/17 14:34:55;;;;;;;;;;;26.10;99.90;;;25.63;58.12;100856.59;4995437;28;19929;-64
2021/07/17 14:37:22;;;;;;;;;;;26.20;99.90;;;25.58;58.34;100857.78;4996042;28;20286;-64
2021/07/17 14:39:50;;;;;;;;;;;26.10;99.90;;;25.47;58.57;100865.22;4995843;28;19926;-64
2021/07/17 14:42:18;;;;;;;;;;;26.00;99.90;;;25.50;58.12;100867.25;4995171;28;19937;-65
2021/07/17 14:44:46;;;;;;;;;;;26.10;99.90;;;25.67;58.69;100862.94;4995210;28;19926;-66
2021/07/17 14:47:16;;;;;;;;;;;26.20;99.90;;;26.06;56.78;100858.28;4995619;28;19932;-64
2021/07/17 14:49:44;;;;;;;;;;;26.50;99.90;;;26.06;55.99;100859.09;4995839;28;19930;-65
2021/07/17 14:52:11;;;;;;;;;;;26.60;99.90;;;26.04;56.12;100853.16;4994984;28;19996;-64
2021/07/17 14:54:39;;;;;;;;;;;26.60;99.90;;;25.54;56.58;100857.75;4995265;28;20373;-65
2021/07/17 14:57:07;;;;;;;;;;;26.20;99.90;;;25.25;58.63;100858.81;4995427;28;19930;-64
2021/07/17 14:59:34;;;;;;;;;;;25.80;99.90;;;25.23;58.58;100863.16;4995578;28;19988;-64
2021/07/17 15:02:02;;;;;;;;;;;25.80;99.90;;;25.33;58.42;100856.84;4994808;28;19984;-65
2021/07/17 15:04:31;;;;;;;;;;;25.80;99.90;;;25.28;58.02;100846.97;4995423;28;19948;-66
2021/07/17 15:06:59;;;;;;;;;;;25.80;99.90;;;25.24;58.57;100843.38;4994769;28;19926;-65
2021/07/17 15:09:27;;;;;;;;;;;25.80;99.90;;;25.19;57.61;100848.47;4995459;28;20000;-63
2021/07/17 15:11:54;;;;;;;;;;;25.80;99.90;;;25.07;59.20;100841.31;4994765;28;20340;-65
2021/07/17 15:14:23;;;;;;;;;;;25.60;99.90;;;25.02;59.76;100838.13;4995055;28;19981;-64
2021/07/17 15:16:50;;;;;;;;;;;25.60;99.90;;;25.11;58.52;100841.34;4994708;28;20451;-64
2021/07/17 15:19:18;;;;;;;;;;;25.60;99.90;;;25.11;59.25;100839.34;4995126;28;20439;-64
2021/07/17 15:21:50;;;;;;;;;;;25.60;99.90;;;25.12;58.52;100837.38;4994638;28;19933;-64
2021/07/17 15:24:17;;;;;;;;;;;25.60;99.90;;;24.83;59.45;100841.97;4994220;28;19926;-64
2021/07/17 15:26:45;;;;;;;;;;;25.40;99.90;;;24.87;61.14;100837.22;4994411;28;19940;-64
2021/07/17 15:29:16;;;;;;;;;;;25.30;99.90;;;25.22;59.04;100839.41;4995128;28;19925;-64
2021/07/17 15:31:45;;;;;;;;;;;25.60;99.90;;;25.41;58.17;100834.34;4994097;28;19933;-66
2021/07/17 15:34:13;;;;;;;;;;;25.80;99.90;;;25.06;58.14;100839.72;4995058;28;19981;-65
2021/07/17 15:36:42;;;;;;;;;;;25.60;99.90;;;24.58;60.52;100833.47;4994163;28;20020;-65
2021/07/17 15:39:11;;;;;;;;;;;25.10;99.90;;;24.39;61.72;100850.28;4994980;28;19988;-64
2021/07/17 15:41:45;;;;;;;;;;;24.90;99.90;;;24.82;61.36;100838.41;4994089;28;19929;-64
2021/07/17 15:44:13;;;;;;;;;;;25.20;99.90;;;24.97;59.31;100848.38;4994884;28;19926;-64
2021/07/17 15:46:41;;;;;;;;;;;25.40;99.90;;;24.85;60.57;100840.41;4993887;28;19988;-65
2021/07/17 15:49:11;;;;;;;;;;;25.30;99.90;;;24.65;61.47;100836.28;4994820;28;19934;-64
2021/07/17 15:51:39;;;;;;;;;;;25.10;99.90;;;24.99;61.73;100836.91;4993935;28;19929;-65
2021/07/17 15:54:06;;;;;;;;;;;25.50;99.90;;;25.36;58.09;100828.38;4994636;28;19949;-64
2021/07/17 15:56:36;;;;;;;;;;;25.70;99.90;;;25.57;58.24;100839.56;4993776;28;20605;-64
2021/07/17 15:59:04;;;;;;;;;;;25.90;99.90;;;25.47;57.66;100837.53;4994509;28;19930;-63
2021/07/17 16:01:32;;;;;;;;;;;26.00;99.90;;;25.27;58.04;100833.50;4993920;28;19930;-65
2021/07/17 16:03:59;;;;;;;;;;;25.80;99.90;;;25.02;59.36;100831.41;4994151;28;19932;-65
2021/07/17 16:06:28;;;;;;;;;;;25.50;99.90;;;25.12;59.03;100827.09;4993541;28;19929;-64
2021/07/17 16:08:56;;;;;;;;;;;25.50;99.90;;;25.14;58.81;100827.50;4994229;28;19925;-65
2021/07/17 16:11:24;;;;;;;;;;;25.50;99.90;;;25.17;60.21;100825.94;4993830;28;19932;-64
2021/07/17 16:13:54;;;;;;;;;;;25.50;99.90;;;25.33;58.13;100831.94;4993909;28;19980;-64
2021/07/17 16:16:25;;;;;;;;;;;25.70;99.90;;;25.29;58.49;100834.69;4993349;28;19926;-64
2021/07/17 16:18:53;;;;;;;;;;;25.80;99.90;;;25.20;59.70;100837.00;4994279;28;19933;-64
2021/07/17 16:21:21;;;;;;;;;;;25.60;99.90;;;25.44;58.93;100832.78;4993635;28;20032;-63
2021/07/17 16:23:49;;;;;;;;;;;25.90;99.90;;;25.36;58.66;100831.16;4993611;28;19929;-64
2021/07/17 16:26:17;;;;;;;;;;;25.90;99.90;;;25.24;58.19;100832.28;4993194;28;19984;-64
2021/07/17 16:28:45;;;;;;;;;;;25.80;99.90;;;24.73;59.40;100835.16;4994134;28;19926;-65
2021/07/17 16:31:14;;;;;;;;;;;25.30;99.90;;;24.54;61.57;100838.16;4993974;28;20005;-64